createdAt,value
2023-02-07T00:00:33.290Z,14.38
2023-02-07T00:03:36.049Z,14.15
2023-02-07T00:06:38.172Z,14.57
2023-02-07T00:09:43.493Z,17.17
2023-02-07T00:12:47.408Z,15.27
2023-02-07T00:15:50.866Z,17.00
2023-02-07T00:18:55.507Z,13.40
2023-02-07T00:22:01.685Z,16.02
2023-02-07T00:25:04.323Z,17.75
2023-02-07T00:28:09.865Z,19.23
2023-02-07T00:31:15.941Z,18.42
2023-02-07T00:34:22.299Z,18.98
2023-02-07T00:37:25.322Z,13.48
2023-02-07T00:40:27.658Z,18.70
2023-02-07T00:43:31.545Z,17.13
2023-02-07T00:46:37.208Z,18.20
2023-02-07T00:49:44.747Z,17.98
2023-02-07T00:52:58.523Z,15.35
2023-02-07T00:56:03.563Z,17.90
2023-02-07T00:59:08.130Z,16.52
2023-02-07T01:02:10.119Z,19.15
2023-02-07T01:05:14.017Z,19.77
2023-02-07T01:08:17.841Z,16.65
2023-02-07T01:11:20.844Z,15.45
2023-02-07T01:14:25.035Z,18.10
2023-02-07T01:17:28.581Z,21.20
2023-02-07T01:20:31.557Z,17.83
2023-02-07T01:23:33.341Z,15.93
2023-02-07T01:26:40.362Z,17.77
2023-02-07T01:29:45.261Z,19.20
2023-02-07T01:32:50.095Z,17.75
2023-02-07T01:35:54.484Z,19.45
2023-02-07T01:38:57.203Z,18.40
2023-02-07T01:42:00.649Z,22.92
2023-02-07T01:45:22.366Z,28.13
2023-02-07T01:48:30.553Z,21.38
2023-02-07T01:51:34.683Z,19.02
2023-02-07T01:54:37.649Z,19.55
2023-02-07T01:57:40.339Z,22.83
2023-02-07T02:00:47.924Z,20.15
2023-02-07T02:03:52.966Z,22.08
2023-02-07T02:07:05.416Z,25.08
2023-02-07T02:10:14.331Z,22.27
2023-02-07T02:13:39.006Z,19.98
2023-02-07T02:16:54.518Z,22.48
2023-02-07T02:21:07.609Z,25.65
2023-02-07T02:24:38.982Z,20.63
2023-02-07T02:28:15.344Z,20.98
2023-02-07T02:31:55.859Z,21.80
2023-02-07T02:38:27.587Z,22.45
2023-02-07T02:41:37.071Z,22.55
2023-02-07T02:44:46.766Z,22.48
2023-02-07T02:48:01.728Z,23.10
2023-02-07T02:51:35.511Z,22.15
2023-02-07T02:55:01.649Z,27.05
2023-02-07T02:58:34.125Z,27.23
2023-02-07T03:02:08.354Z,20.52
2023-02-07T03:05:37.905Z,26.90
2023-02-07T03:08:52.780Z,26.38
2023-02-07T03:12:16.312Z,26.38
2023-02-07T03:15:38.565Z,29.13
2023-02-07T03:19:07.585Z,25.55
2023-02-07T03:22:14.611Z,29.98
2023-02-07T03:25:25.160Z,26.42
2023-02-07T03:28:36.852Z,25.95
2023-02-07T03:31:48.907Z,23.80
2023-02-07T03:35:07.174Z,26.45
2023-02-07T03:38:27.163Z,26.45
2023-02-07T03:41:51.495Z,25.92
2023-02-07T03:45:10.138Z,29.25
2023-02-07T03:48:38.475Z,25.92
2023-02-07T03:52:08.139Z,23.17
2023-02-07T03:55:25.254Z,26.48
2023-02-07T03:58:51.706Z,27.50
2023-02-07T04:02:32.984Z,26.23
2023-02-07T04:05:47.959Z,21.08
2023-02-07T04:08:52.331Z,22.80
2023-02-07T04:11:54.225Z,27.38
2023-02-07T04:16:06.229Z,23.25
2023-02-07T04:19:13.865Z,22.15
2023-02-07T04:22:30.208Z,25.02
2023-02-07T04:25:48.744Z,23.23
2023-02-07T04:33:00.310Z,24.65
2023-02-07T04:36:31.606Z,28.92
2023-02-07T04:39:58.159Z,25.40
2023-02-07T04:43:26.028Z,27.67
2023-02-07T04:47:38.375Z,32.15
2023-02-07T04:50:17.378Z,30.15
2023-02-07T04:53:35.003Z,30.85
2023-02-07T04:56:40.779Z,31.10
2023-02-07T05:00:02.280Z,32.28
2023-02-07T05:03:35.469Z,29.15
2023-02-07T05:11:12.940Z,33.13
2023-02-07T05:41:01.462Z,37.83
2023-02-07T05:44:41.587Z,37.95
2023-02-07T05:48:14.313Z,22.90
2023-02-07T06:13:36.481Z,39.53
2023-02-07T06:17:15.032Z,39.58
2023-02-07T06:21:02.061Z,39.13
2023-02-07T06:25:06.583Z,45.78
2023-02-07T06:28:43.692Z,42.58
2023-02-07T06:32:22.559Z,45.00
2023-02-07T06:39:45.279Z,100.43
2023-02-07T06:43:03.275Z,55.95
2023-02-07T06:45:04.228Z,65.22
2023-02-07T07:45:29.309Z,51.38
2023-02-07T07:47:18.467Z,45.58
2023-02-07T07:50:20.694Z,44.25
2023-02-07T07:53:22.710Z,45.97
2023-02-07T07:56:24.648Z,45.65
2023-02-07T07:59:26.903Z,46.05
2023-02-07T08:02:30.763Z,49.35
2023-02-07T08:05:33.334Z,52.22
2023-02-07T08:08:37.052Z,51.75
2023-02-07T08:11:39.114Z,43.03
2023-02-07T08:14:40.973Z,52.60
2023-02-07T08:17:44.278Z,45.85
2023-02-07T08:20:46.145Z,46.17
2023-02-07T08:23:47.947Z,46.30
2023-02-07T08:26:49.987Z,46.35
2023-02-07T08:29:52.046Z,42.90
2023-02-07T08:32:55.246Z,56.00
2023-02-07T08:35:57.484Z,42.92
2023-02-07T08:38:59.369Z,43.25
2023-02-07T08:42:01.478Z,43.00
2023-02-07T08:45:06.244Z,40.53
2023-02-07T08:48:22.689Z,40.00
2023-02-07T08:51:24.756Z,44.58
2023-02-07T08:54:26.667Z,36.45
2023-02-07T08:57:28.463Z,42.30
2023-02-07T09:00:32.327Z,41.83
2023-02-07T09:03:35.826Z,42.72
2023-02-07T09:06:37.704Z,39.70
2023-02-07T09:09:40.003Z,41.20
2023-02-07T09:12:42.324Z,43.20
2023-02-07T09:15:44.093Z,41.15
2023-02-07T09:18:47.338Z,45.08
2023-02-07T09:21:49.128Z,40.45
2023-02-07T09:24:51.652Z,42.55
2023-02-07T09:27:53.475Z,46.22
2023-02-07T09:30:55.517Z,42.97
2023-02-07T09:33:58.801Z,54.00
2023-02-07T09:37:00.767Z,44.65
2023-02-07T09:40:04.287Z,45.88
2023-02-07T09:43:21.007Z,41.67
2023-02-07T09:46:28.688Z,48.65
2023-02-07T09:49:37.184Z,41.42
2023-02-07T09:52:45.477Z,40.75
2023-02-07T09:55:50.183Z,40.15
2023-02-07T09:59:00.787Z,36.80
2023-02-07T10:02:14.200Z,36.70
2023-02-07T10:05:21.898Z,39.03
2023-02-07T10:08:28.366Z,42.85
2023-02-07T10:11:45.285Z,40.03
2023-02-07T10:15:04.677Z,43.20
2023-02-07T10:21:37.743Z,39.85
2023-02-07T10:24:57.975Z,38.40
2023-02-07T10:28:16.027Z,38.85
2023-02-07T10:31:18.968Z,36.80
2023-02-07T10:34:23.174Z,41.75
2023-02-07T10:37:28.803Z,43.95
2023-02-07T10:40:37.404Z,40.15
2023-02-07T10:46:45.209Z,35.95
2023-02-07T10:49:49.445Z,34.35
2023-02-07T10:52:53.752Z,37.53
2023-02-07T10:55:55.614Z,36.45
2023-02-07T10:58:58.765Z,44.83
2023-02-07T11:02:02.092Z,40.63
2023-02-07T11:05:25.515Z,36.03
2023-02-07T11:08:30.908Z,35.40
2023-02-07T11:11:33.050Z,36.30
2023-02-07T11:14:36.416Z,33.67
2023-02-07T11:17:40.927Z,113.50
2023-02-07T11:20:43.043Z,36.65
2023-02-07T11:23:47.522Z,33.20
2023-02-07T11:26:56.329Z,35.15
2023-02-07T11:30:00.318Z,33.78
2023-02-07T11:33:04.921Z,33.38
2023-02-07T11:36:15.789Z,32.83
2023-02-07T11:39:21.401Z,38.30
2023-02-07T11:42:26.154Z,31.63
2023-02-07T11:45:28.954Z,33.20
2023-02-07T11:48:34.126Z,31.85
2023-02-07T11:51:36.495Z,51.55
2023-02-07T11:54:41.457Z,29.73
2023-02-07T11:57:46.280Z,35.33
2023-02-07T12:00:49.455Z,34.15
2023-02-07T12:03:55.406Z,29.45
2023-02-07T12:07:08.881Z,32.40
2023-02-07T12:10:15.668Z,32.03
2023-02-07T12:13:21.853Z,31.95
2023-02-07T12:16:28.867Z,39.03
2023-02-07T12:19:34.218Z,33.45
2023-02-07T12:22:44.559Z,29.30
2023-02-07T12:25:58.552Z,30.33
2023-02-07T12:29:25.351Z,31.98
2023-02-07T12:32:37.918Z,29.02
2023-02-07T12:35:56.846Z,30.20
2023-02-07T12:39:05.470Z,27.77
2023-02-07T12:42:24.809Z,27.93
2023-02-07T12:45:40.311Z,31.55
2023-02-07T12:49:02.715Z,33.30
2023-02-07T12:52:20.779Z,33.90
2023-02-07T12:55:34.401Z,30.75
2023-02-07T12:58:50.038Z,30.60
2023-02-07T13:02:03.587Z,29.50
2023-02-07T13:05:44.437Z,28.20
2023-02-07T13:08:57.308Z,30.92
2023-02-07T13:12:09.671Z,30.52
2023-02-07T13:15:21.509Z,29.88
2023-02-07T13:18:28.413Z,29.02
2023-02-07T13:21:39.223Z,28.80
2023-02-07T13:24:44.411Z,29.15
2023-02-07T13:27:50.455Z,26.75
2023-02-07T13:30:54.873Z,29.55
2023-02-07T13:33:57.461Z,26.52
2023-02-07T13:37:08.038Z,30.00
2023-02-07T13:40:25.602Z,28.48
2023-02-07T13:43:39.806Z,29.58
2023-02-07T13:47:08.475Z,28.65
2023-02-07T13:50:43.207Z,32.03
2023-02-07T13:53:51.654Z,26.02
2023-02-07T13:56:58.305Z,27.65
2023-02-07T14:00:16.515Z,24.50
2023-02-07T14:03:23.809Z,27.58
2023-02-07T14:06:27.511Z,27.85
2023-02-07T14:09:33.410Z,23.00
2023-02-07T14:12:38.462Z,24.50
2023-02-07T14:16:01.248Z,30.58
2023-02-07T14:19:04.578Z,22.67
2023-02-07T14:22:15.525Z,23.98
2023-02-07T14:25:24.070Z,22.05
2023-02-07T14:28:34.481Z,24.52
2023-02-07T14:31:36.334Z,25.65
2023-02-07T14:35:02.417Z,21.52
2023-02-07T14:38:22.118Z,23.52
2023-02-07T14:41:28.702Z,23.98
2023-02-07T14:44:36.491Z,34.28
2023-02-07T14:47:38.465Z,19.70
2023-02-07T14:50:51.793Z,22.02
2023-02-07T14:54:02.978Z,25.80
2023-02-07T14:57:15.603Z,21.75
2023-02-07T15:00:28.728Z,21.85
2023-02-07T15:03:32.045Z,21.55
2023-02-07T15:06:41.944Z,22.20
2023-02-07T15:09:46.220Z,18.83
2023-02-07T15:12:57.439Z,20.30
2023-02-07T15:16:03.585Z,22.33
2023-02-07T15:19:14.234Z,20.02
2023-02-07T15:22:26.124Z,17.02
2023-02-07T15:25:29.490Z,18.60
2023-02-07T15:28:32.257Z,17.73
2023-02-07T15:31:41.019Z,20.85
2023-02-07T15:34:46.607Z,16.75
2023-02-07T15:38:23.694Z,16.90
2023-02-07T15:41:29.773Z,14.93
2023-02-07T15:44:33.024Z,15.20
2023-02-07T15:47:36.975Z,17.38
2023-02-07T15:50:39.101Z,13.85
2023-02-07T15:53:42.988Z,14.27
2023-02-07T15:56:45.610Z,17.92
2023-02-07T15:59:51.838Z,15.02
2023-02-07T16:02:57.951Z,14.70
2023-02-07T16:06:03.624Z,20.75
2023-02-07T16:09:23.166Z,14.70
2023-02-07T16:12:43.904Z,13.23
2023-02-07T16:15:57.591Z,15.68
2023-02-07T16:19:08.014Z,16.15
2023-02-07T16:22:16.290Z,16.05
2023-02-07T16:25:22.060Z,18.50
2023-02-07T16:28:24.769Z,16.27
2023-02-07T16:31:27.627Z,16.83
2023-02-07T16:34:29.842Z,14.68
2023-02-07T16:37:31.701Z,19.48
2023-02-07T16:40:40.047Z,23.10
2023-02-07T16:46:45.437Z,19.60
2023-02-07T16:49:47.429Z,19.02
2023-02-07T16:52:50.811Z,22.33
2023-02-07T16:55:56.481Z,21.00
2023-02-07T16:58:58.375Z,21.15
2023-02-07T17:02:00.376Z,20.15
2023-02-07T17:05:02.598Z,24.10
2023-02-07T17:08:04.855Z,23.23
2023-02-07T17:11:15.970Z,24.35
2023-02-07T17:14:18.732Z,24.27
2023-02-07T17:17:20.836Z,23.73
2023-02-07T17:20:25.600Z,27.17
2023-02-07T17:23:28.323Z,28.52
2023-02-07T17:26:34.548Z,26.48
2023-02-07T17:29:37.160Z,23.58
2023-02-07T17:32:39.935Z,23.65
2023-02-07T17:35:43.637Z,27.98
2023-02-07T17:38:46.407Z,21.50
2023-02-07T17:41:51.680Z,21.65
2023-02-07T17:44:56.294Z,23.10
2023-02-07T17:47:59.625Z,26.10
2023-02-07T17:51:02.337Z,39.08
2023-02-07T17:54:06.920Z,34.50
2023-02-07T17:57:15.226Z,25.58
2023-02-07T18:00:23.438Z,34.22
2023-02-07T18:03:29.871Z,30.10
2023-02-07T18:06:33.860Z,27.70
2023-02-07T18:09:38.255Z,33.15
2023-02-07T18:12:43.406Z,28.85
2023-02-07T18:15:46.026Z,23.42
2023-02-07T18:18:49.918Z,22.98
2023-02-07T18:21:53.339Z,25.63
2023-02-07T18:24:57.033Z,22.92
2023-02-07T18:28:01.399Z,23.52
2023-02-07T18:31:10.343Z,24.58
2023-02-07T18:34:13.050Z,22.05
2023-02-07T18:37:16.117Z,20.10
2023-02-07T18:40:20.082Z,20.30
2023-02-07T18:43:25.736Z,21.90
2023-02-07T18:46:29.166Z,21.83
2023-02-07T18:49:36.642Z,21.08
2023-02-07T18:52:44.708Z,18.95
2023-02-07T18:55:50.809Z,19.35
2023-02-07T18:58:57.759Z,19.55
2023-02-07T19:02:01.248Z,19.98
2023-02-07T19:05:04.707Z,26.23
2023-02-07T19:08:07.448Z,22.55
2023-02-07T19:11:10.601Z,21.98
2023-02-07T19:14:17.309Z,23.08
2023-02-07T19:17:24.126Z,19.92
2023-02-07T19:20:29.227Z,18.95
2023-02-07T19:23:32.554Z,19.55
2023-02-07T19:26:36.067Z,21.50
2023-02-07T19:29:41.990Z,18.65
2023-02-07T19:32:45.679Z,18.38
2023-02-07T19:35:49.920Z,20.27
2023-02-07T19:38:53.651Z,18.70
2023-02-07T19:42:01.171Z,18.77
2023-02-07T19:45:06.510Z,20.85
2023-02-07T19:48:13.067Z,19.30
2023-02-07T19:51:19.075Z,18.92
2023-02-07T19:54:22.984Z,18.50
2023-02-07T19:57:26.561Z,19.17
2023-02-07T20:00:30.904Z,20.65
2023-02-07T20:03:38.167Z,17.38
2023-02-07T20:06:42.905Z,17.17
2023-02-07T20:09:47.751Z,16.60
2023-02-07T20:12:52.378Z,18.55
2023-02-07T20:15:57.965Z,18.00
2023-02-07T20:19:03.833Z,18.65
2023-02-07T20:22:06.492Z,18.38
2023-02-07T20:25:09.176Z,21.05
2023-02-07T20:28:11.548Z,18.00
2023-02-07T20:31:18.282Z,20.05
2023-02-07T20:34:20.539Z,21.48
2023-02-07T20:37:23.522Z,19.80
2023-02-07T20:40:26.422Z,19.40
2023-02-07T20:43:30.088Z,20.27
2023-02-07T20:46:36.564Z,22.77
2023-02-07T20:49:39.284Z,21.77
2023-02-07T20:52:42.428Z,20.77
2023-02-07T20:55:45.494Z,20.15
2023-02-07T20:58:50.512Z,22.20
2023-02-07T21:01:56.235Z,18.50
2023-02-07T21:04:59.497Z,25.67
2023-02-07T21:08:02.381Z,21.95
2023-02-07T21:11:06.759Z,20.67
2023-02-07T21:14:12.500Z,23.20
2023-02-07T21:17:17.108Z,25.35
2023-02-07T21:20:20.737Z,24.75
2023-02-07T21:23:24.591Z,23.70
2023-02-07T21:26:27.800Z,23.42
2023-02-07T21:29:30.293Z,24.42
2023-02-07T21:32:34.593Z,22.00
2023-02-07T21:35:37.624Z,25.35
2023-02-07T21:38:41.389Z,23.65
2023-02-07T21:41:45.603Z,23.27
2023-02-07T21:44:50.456Z,28.38
2023-02-07T21:47:53.623Z,26.88
2023-02-07T21:51:02.393Z,25.35
2023-02-07T21:54:06.415Z,25.45
2023-02-07T21:57:09.358Z,25.67
2023-02-07T22:00:12.836Z,23.52
2023-02-07T22:03:16.014Z,25.98
2023-02-07T22:06:20.071Z,22.98
2023-02-07T22:09:22.320Z,22.40
2023-02-07T22:12:24.185Z,23.20
2023-02-07T22:15:26.001Z,22.17
2023-02-07T22:18:29.569Z,20.90
2023-02-07T22:21:33.725Z,23.67
2023-02-07T22:24:35.545Z,24.75
2023-02-07T22:27:37.551Z,22.95
2023-02-07T22:30:41.298Z,26.00
2023-02-07T22:33:44.908Z,22.85
2023-02-07T22:36:46.814Z,23.30
2023-02-07T22:39:49.322Z,24.95
2023-02-07T22:42:52.209Z,24.92
2023-02-07T22:45:54.285Z,24.33
2023-02-07T22:49:00.287Z,23.17
2023-02-07T22:52:03.533Z,31.35
2023-02-07T22:55:05.803Z,22.17
2023-02-07T22:58:07.664Z,25.35
2023-02-07T23:01:19.792Z,24.80
2023-02-07T23:04:22.986Z,23.48
2023-02-07T23:07:26.890Z,25.75
2023-02-07T23:10:28.953Z,28.33
2023-02-07T23:13:30.734Z,29.10
2023-02-07T23:16:35.464Z,35.45
2023-02-07T23:19:38.841Z,27.92
2023-02-07T23:22:43.474Z,32.00
2023-02-07T23:25:46.913Z,37.25
2023-02-07T23:28:50.724Z,35.30
2023-02-07T23:31:52.994Z,33.53
2023-02-07T23:34:56.230Z,33.22
2023-02-07T23:37:58.035Z,34.55
2023-02-07T23:41:01.950Z,36.25
2023-02-07T23:44:05.250Z,38.55
2023-02-07T23:47:07.109Z,38.25
2023-02-07T23:50:10.622Z,36.83
2023-02-07T23:53:12.944Z,33.22
2023-02-07T23:56:16.727Z,40.80
2023-02-07T23:59:26.404Z,39.03
